ENGM/OSL METAR and TAF weather

Enter ICAO airport designator
Station Type Date Time Source
ENGM METAR 2019/12/16 03:20 UTC NOAA

ENGM 160320Z 20005KT 9999 FEW003 SCT005 OVC007 M00/M01 Q0992


Station Type Date Time Source
ENGM Decoded METAR 2019/12/16 03:20 UTC NOAA

Oslo / Gardermoen, Norway (ENGM) 60-12N 011-05E 204M
Dec 15, 2019 - 10:20 PM EST / 2019.12.16 0320 UTC
Wind: from the SSW (200 degrees) at 6 MPH (5 KT):0
Visibility: greater than 7 mile(s):0
Sky conditions: overcast
Temperature: 32 F (0 C)
Windchill: 26 F (-3 C):1
Dew Point: 30 F (-1 C)
Relative Humidity: 92%
Pressure (altimeter): 29.29 in. Hg (0992 hPa)
ob: ENGM 160320Z 20005KT 9999 FEW003 SCT005 OVC007 M00/M01 Q0992
cycle: 3

Station Type Date Time Source
ENGM TAF 2019/12/15 18:57 UTC NOAA

TAF ENGM 151700Z 1518/1618 05005KT 9000 SCT003 BKN012 PROB40 1518/1610 0800 FZFG VV002
BECMG 1609/1612 SCT012 PROB40 1616/1618 0800 FZFG VV002

Example: see airport list